Time;durP1;ratioP1;P1;durP2;ratioP2;P2;SDS_P1;SDS_P2;PMS_P1;PMS_P2;Temp;Humidity;BMP_temperature;BMP_pressure;BME280_temperature;BME280_humidity;BME280_pressure;Samples;Min_cycle;Max_cycle;Signal;HPM_P1;HPM_P2
2022/05/06 00:01:06;;;;;;;20.03;13.20;;;9.40;99.90;8.60;100896;;;;595519;240;24107;-76
2022/05/06 00:03:37;;;;;;;19.67;11.80;;;9.40;99.90;8.60;100893;;;;585794;237;24124;-75
2022/05/06 00:06:02;;;;;;;20.37;12.50;;;9.40;99.90;8.60;100889;;;;585481;241;24083;-76
2022/05/06 00:08:29;;;;;;;19.27;12.40;;;9.40;99.90;8.60;100886;;;;585867;241;24074;-75
2022/05/06 00:10:59;;;;;;;18.10;11.60;;;9.40;99.90;8.60;100890;;;;585893;241;24074;-75
2022/05/06 00:13:25;;;;;;;17.23;11.53;;;9.30;99.90;8.60;100884;;;;585813;241;24101;-76
2022/05/06 00:15:53;;;;;;;19.83;11.13;;;9.40;99.90;8.60;100881;;;;585880;241;24067;-76
2022/05/06 00:18:21;;;;;;;19.70;11.47;;;9.40;99.90;8.60;100886;;;;585877;241;24082;-75
2022/05/06 00:20:49;;;;;;;17.23;12.50;;;9.40;99.90;8.60;100884;;;;585446;241;24108;-75
2022/05/06 00:23:17;;;;;;;16.60;11.17;;;9.40;99.90;8.60;100877;;;;585478;241;24077;-75
2022/05/06 00:25:45;;;;;;;18.47;10.97;;;9.40;99.90;8.60;100878;;;;585579;241;24109;-75
2022/05/06 00:28:13;;;;;;;15.47;10.90;;;9.40;99.90;8.70;100870;;;;585542;241;24077;-76
2022/05/06 00:30:41;;;;;;;15.53;9.90;;;9.50;99.90;8.70;100876;;;;585538;241;24065;-75
2022/05/06 00:33:09;;;;;;;20.23;10.97;;;9.40;99.90;8.70;100868;;;;585005;241;24168;-75
2022/05/06 00:35:37;;;;;;;17.93;10.37;;;9.50;99.90;8.70;100872;;;;585605;241;24075;-77
2022/05/06 00:38:05;;;;;;;17.03;10.63;;;9.50;99.90;8.70;100870;;;;585463;241;24079;-74
2022/05/06 00:40:33;;;;;;;14.33;9.37;;;9.50;99.90;8.70;100870;;;;596327;239;24102;-74
2022/05/06 00:43:01;;;;;;;18.73;10.17;;;9.50;99.90;8.70;100858;;;;587210;240;24057;-75
2022/05/06 00:45:30;;;;;;;18.67;10.17;;;9.50;99.90;8.70;100863;;;;586472;240;24096;-75
2022/05/06 00:47:59;;;;;;;12.83;8.40;;;9.50;99.90;8.70;100856;;;;585675;240;24127;-75
2022/05/06 00:50:25;;;;;;;14.43;8.77;;;9.50;99.90;8.70;100856;;;;591364;236;24111;-75
2022/05/06 00:52:53;;;;;;;17.77;9.53;;;9.50;99.90;8.70;100836;;;;596144;240;24110;-75
2022/05/06 00:55:24;;;;;;;12.37;10.13;;;9.50;99.90;8.70;100847;;;;586055;240;24096;-75
2022/05/06 00:57:49;;;;;;;14.03;8.93;;;9.50;99.90;8.70;100847;;;;586622;240;24074;-76
2022/05/06 01:00:20;;;;;;;13.13;8.93;;;9.50;99.90;8.60;100848;;;;585823;240;24093;-75
2022/05/06 01:02:48;;;;;;;13.60;9.00;;;9.40;99.90;8.60;100854;;;;586637;240;24076;-75
2022/05/06 01:05:16;;;;;;;15.33;8.73;;;9.40;99.90;8.60;100860;;;;591333;240;24137;-75
2022/05/06 01:07:45;;;;;;;9.33;8.33;;;9.40;99.90;8.50;100851;;;;586167;240;24250;-76
2022/05/06 01:10:13;;;;;;;12.53;7.90;;;9.20;99.90;8.40;100858;;;;586297;240;24174;-76
2022/05/06 01:12:41;;;;;;;16.37;8.40;;;9.20;99.90;8.30;100860;;;;585391;240;24091;-77
2022/05/06 01:15:23;;;;;;;14.77;9.00;;;9.10;99.90;8.20;100858;;;;585513;240;24127;-75
2022/05/06 01:17:54;;;;;;;11.00;8.30;;;9.00;99.90;8.10;100859;;;;585669;241;24116;-76
2022/05/06 01:20:20;;;;;;;12.73;8.60;;;8.90;99.90;8.10;100862;;;;585986;241;25114;-77
2022/05/06 01:22:50;;;;;;;16.53;8.67;;;8.90;99.90;8.00;100859;;;;595529;241;24090;-76
2022/05/06 01:25:21;;;;;;;13.00;7.70;;;8.80;99.90;8.00;100866;;;;586267;241;24107;-75
2022/05/06 01:28:01;;;;;;;11.70;8.33;;;8.80;99.90;7.90;100861;;;;586147;241;24142;-74
2022/05/06 01:30:42;;;;;;;14.53;8.47;;;8.70;99.90;7.90;100855;;;;585222;241;26234;-75
2022/05/06 01:33:11;;;;;;;9.77;7.63;;;8.70;99.90;7.80;100857;;;;585352;241;24075;-75
2022/05/06 01:35:44;;;;;;;14.43;8.40;;;8.60;99.90;7.70;100861;;;;586980;241;24105;-77
2022/05/06 01:38:27;;;;;;;22.63;9.43;;;8.50;99.90;7.60;100859;;;;586945;241;24064;-75
2022/05/06 01:41:01;;;;;;;16.27;8.43;;;8.40;99.90;7.50;100853;;;;584323;241;24092;-80
2022/05/06 01:43:42;;;;;;;17.43;8.50;;;8.30;99.90;7.30;100868;;;;586449;241;24164;-78
2022/05/06 01:46:09;;;;;;;22.13;9.57;;;8.10;99.90;7.20;100867;;;;587384;241;24082;-80
2022/05/06 01:48:33;;;;;;;13.83;8.23;;;8.00;99.90;7.10;100858;;;;587011;241;24091;-79
2022/05/06 01:51:04;;;;;;;16.37;10.03;;;7.90;99.90;7.00;100854;;;;586419;239;24106;-77
2022/05/06 01:53:33;;;;;;;17.73;9.53;;;7.70;99.90;6.90;100856;;;;588014;240;24138;-74
2022/05/06 01:55:58;;;;;;;15.80;9.60;;;7.60;99.90;6.80;100855;;;;587003;240;24096;-75
2022/05/06 01:58:26;;;;;;;16.70;9.67;;;7.60;99.90;6.70;100851;;;;586732;240;24162;-75
2022/05/06 02:00:54;;;;;;;13.27;8.77;;;7.50;99.90;6.60;100856;;;;586504;240;24049;-76
2022/05/06 02:06:09;;;;;;;18.53;9.43;;;7.40;99.90;6.40;100845;;;;592652;240;24097;-76
2022/05/06 02:08:36;;;;;;;13.80;9.07;;;7.30;99.90;6.40;100843;;;;586880;240;24099;-78
2022/05/06 02:11:05;;;;;;;16.30;8.43;;;7.20;99.90;6.30;100844;;;;586708;240;24064;-79
2022/05/06 02:13:33;;;;;;;14.53;9.77;;;7.10;99.90;6.30;100849;;;;586485;240;24087;-79
2022/05/06 02:16:02;;;;;;;18.23;9.97;;;7.10;99.90;6.20;100845;;;;587408;240;24070;-79
2022/05/06 02:18:28;;;;;;;13.07;8.37;;;7.00;99.90;6.10;100848;;;;587419;240;24087;-78
2022/05/06 02:20:56;;;;;;;18.13;9.50;;;7.00;99.90;6.00;100860;;;;586311;240;24106;-79
2022/05/06 02:23:25;;;;;;;16.07;9.80;;;6.80;99.90;6.00;100851;;;;587051;240;25157;-80
2022/05/06 02:25:53;;;;;;;14.90;9.80;;;6.80;99.90;5.90;100854;;;;586509;240;24147;-80
2022/05/06 02:28:26;;;;;;;24.83;10.60;;;6.70;99.90;5.80;100848;;;;585439;241;24155;-78
2022/05/06 02:33:36;;;;;;;16.97;10.40;;;6.60;99.90;5.70;100846;;;;585921;241;24122;-75
2022/05/06 02:36:05;;;;;;;14.53;9.80;;;6.50;99.90;5.60;100849;;;;585643;241;24141;-75
2022/05/06 02:38:32;;;;;;;20.00;9.63;;;6.50;99.90;5.60;100847;;;;585111;241;24076;-75
2022/05/06 02:41:00;;;;;;;14.37;9.00;;;6.40;99.90;5.60;100837;;;;586058;241;24075;-75
2022/05/06 02:43:28;;;;;;;20.13;9.40;;;6.40;99.90;5.50;100850;;;;585950;241;25152;-75
2022/05/06 02:45:56;;;;;;;14.80;10.03;;;6.40;99.90;5.50;100847;;;;585580;241;24084;-75
2022/05/06 02:48:24;;;;;;;17.33;9.77;;;6.40;99.90;5.60;100854;;;;585533;241;24061;-76
2022/05/06 02:50:52;;;;;;;15.57;10.50;;;6.40;99.90;5.60;100851;;;;585029;241;24116;-75
2022/05/06 02:53:23;;;;;;;15.67;11.00;;;6.40;99.90;5.60;100860;;;;585938;241;24069;-76
2022/05/06 02:55:51;;;;;;;18.17;11.00;;;6.40;99.90;5.60;100851;;;;586102;241;24068;-76
2022/05/06 02:58:18;;;;;;;16.13;11.10;;;6.40;99.90;5.60;100850;;;;586271;241;24089;-79
2022/05/06 03:00:46;;;;;;;17.33;10.20;;;6.40;99.90;5.60;100857;;;;586257;241;24060;-76
2022/05/06 03:03:14;;;;;;;19.50;10.93;;;6.50;99.90;5.60;100861;;;;587015;240;24122;-76
2022/05/06 03:05:43;;;;;;;14.03;10.93;;;6.40;99.90;5.60;100853;;;;587496;240;24080;-77
2022/05/06 03:08:11;;;;;;;14.10;10.00;;;6.40;99.90;5.60;100855;;;;586880;240;24079;-80
2022/05/06 03:10:39;;;;;;;18.50;10.73;;;6.40;99.90;5.50;100854;;;;586969;240;24154;-78
2022/05/06 03:13:07;;;;;;;21.63;9.67;;;6.40;99.90;5.60;100856;;;;586651;240;24067;-77
2022/05/06 03:15:35;;;;;;;27.90;12.80;;;6.40;99.90;5.70;100858;;;;586299;240;24053;-80
2022/05/06 03:18:04;;;;;;;19.30;10.23;;;6.50;99.90;5.70;100857;;;;586623;240;24056;-80
2022/05/06 03:20:32;;;;;;;24.57;10.67;;;6.50;99.90;5.70;100858;;;;586471;240;24135;-80
2022/05/06 03:22:59;;;;;;;17.70;9.97;;;6.50;99.90;5.70;100857;;;;586133;240;24076;-77
2022/05/06 03:25:28;;;;;;;18.30;10.83;;;6.60;99.90;5.70;100862;;;;585891;240;24064;-78
2022/05/06 03:28:03;;;;;;;16.87;10.40;;;6.50;99.90;5.80;100862;;;;586071;240;24121;-76
2022/05/06 03:30:30;;;;;;;14.20;9.17;;;6.60;99.90;5.80;100859;;;;586344;240;24108;-76
2022/05/06 03:32:58;;;;;;;15.03;9.47;;;6.70;99.90;5.90;100874;;;;586911;240;24130;-78
2022/05/06 03:35:29;;;;;;;19.47;9.47;;;6.70;99.90;5.90;100864;;;;586604;240;24084;-76
2022/05/06 03:37:54;;;;;;;13.07;9.33;;;6.70;99.90;6.00;100875;;;;591156;240;24099;-76
2022/05/06 03:40:24;;;;;;;13.70;8.97;;;6.80;99.90;6.00;100877;;;;585479;241;24159;-75
2022/05/06 03:42:49;;;;;;;14.83;10.10;;;6.90;99.90;6.10;100875;;;;595175;241;24107;-76
2022/05/06 03:45:17;;;;;;;13.50;8.00;;;6.90;99.90;6.20;100876;;;;586175;241;24084;-76
2022/05/06 03:47:45;;;;;;;19.40;9.67;;;7.00;99.90;6.30;100875;;;;586328;241;24079;-76
2022/05/06 03:53:00;;;;;;;16.30;8.60;;;7.10;99.90;6.40;100877;;;;591870;241;24064;-76
2022/05/06 03:55:28;;;;;;;15.10;9.30;;;7.20;99.90;6.50;100885;;;;585841;241;24067;-77
2022/05/06 03:57:56;;;;;;;11.50;7.57;;;7.40;99.90;6.60;100890;;;;591413;238;24128;-78
2022/05/06 04:00:23;;;;;;;14.30;8.50;;;7.50;99.90;6.70;100886;;;;586266;241;24065;-76
2022/05/06 04:02:51;;;;;;;15.83;9.07;;;7.60;99.90;6.90;100889;;;;585975;241;24095;-77
2022/05/06 04:05:20;;;;;;;18.43;9.67;;;7.70;99.90;7.50;100887;;;;586149;241;24114;-81
2022/05/06 04:07:47;;;;;;;14.13;9.73;;;8.30;99.90;8.70;100896;;;;586186;241;24061;-80
2022/05/06 04:10:15;;;;;;;11.90;8.53;;;9.40;99.90;10.10;100892;;;;586752;241;24115;-78
2022/05/06 04:12:43;;;;;;;11.77;8.40;;;10.70;99.90;11.40;100899;;;;586938;241;24085;-80
2022/05/06 04:15:11;;;;;;;11.03;6.43;;;12.00;99.90;12.40;100904;;;;587949;240;24066;-80
2022/05/06 04:17:39;;;;;;;9.03;7.00;;;13.10;99.90;13.50;100911;;;;588252;240;24050;-79
2022/05/06 04:25:38;;;;;;;13.23;6.83;;;16.10;99.90;15.90;100910;;;;588310;240;24068;-81
2022/05/06 04:28:06;;;;;;;10.63;7.37;;;16.90;99.90;16.60;100914;;;;588225;240;24101;-80
2022/05/06 04:30:35;;;;;;;11.53;5.97;;;17.60;99.90;17.20;100921;;;;587158;240;24053;-79
2022/05/06 04:33:03;;;;;;;7.27;6.43;;;18.30;99.90;17.80;100917;;;;587017;240;24192;-81
2022/05/06 04:35:30;;;;;;;7.13;6.53;;;18.90;99.90;18.40;100921;;;;587164;240;24081;-78
2022/05/06 04:37:58;;;;;;;7.97;6.53;;;19.50;99.90;18.80;100914;;;;586673;240;24041;-81
2022/05/06 04:40:26;;;;;;;8.43;6.27;;;20.00;96.00;19.30;100922;;;;586821;240;24117;-77
2022/05/06 04:42:54;;;;;;;8.97;6.77;;;20.40;94.10;19.70;100922;;;;586697;240;24178;-80
2022/05/06 04:45:25;;;;;;;11.27;6.97;;;20.90;92.30;20.30;100928;;;;587036;240;24125;-78
2022/05/06 04:47:50;;;;;;;11.57;6.20;;;22.10;85.60;21.10;100931;;;;586544;240;24092;-79
2022/05/06 04:50:19;;;;;;;8.57;6.90;;;22.70;81.20;21.70;100924;;;;586507;241;23106;-79
2022/05/06 04:52:49;;;;;;;10.53;6.90;;;23.40;75.70;22.40;100932;;;;586623;241;24061;-77
2022/05/06 04:55:16;;;;;;;7.50;6.53;;;23.80;73.30;22.60;100938;;;;586536;241;24078;-79
2022/05/06 04:57:44;;;;;;;8.47;7.20;;;23.80;73.20;23.30;100939;;;;586449;241;24179;-80
2022/05/06 05:00:12;;;;;;;9.27;7.20;;;24.40;70.50;23.60;100943;;;;586475;241;24112;-77
2022/05/06 05:02:40;;;;;;;7.40;6.80;;;24.70;67.90;24.10;100940;;;;586831;241;23083;-80
2022/05/06 05:05:11;;;;;;;10.03;8.77;;;25.10;66.50;24.40;100937;;;;586460;241;24106;-80
2022/05/06 05:07:36;;;;;;;9.00;7.13;;;25.50;63.80;24.60;100940;;;;596420;241;24067;-76
2022/05/06 05:10:04;;;;;;;7.07;6.47;;;25.70;62.10;24.90;100942;;;;586753;241;23074;-78
2022/05/06 05:12:32;;;;;;;8.03;6.57;;;25.90;61.10;25.30;100935;;;;586576;241;23108;-76
2022/05/06 05:15:00;;;;;;;7.83;7.03;;;26.30;59.80;25.90;100945;;;;585940;241;24055;-79
2022/05/06 05:17:28;;;;;;;7.77;6.47;;;26.80;58.80;26.00;100952;;;;585944;241;23093;-77
2022/05/06 05:19:56;;;;;;;7.70;6.70;;;26.90;57.50;26.60;100945;;;;596217;241;23094;-77
2022/05/06 05:22:24;;;;;;;9.40;6.93;;;27.40;56.50;27.20;100958;;;;585726;241;23095;-79
2022/05/06 05:24:51;;;;;;;8.37;7.50;;;28.10;55.50;27.70;100961;;;;586426;241;24148;-81
2022/05/06 05:27:23;;;;;;;10.55;7.65;;;28.60;54.70;28.50;100962;;;;582657;240;35248;-78
2022/05/06 05:29:47;;;;;;;8.65;6.53;;;29.20;53.00;28.90;100967;;;;587034;240;23093;-78
2022/05/06 05:32:17;;;;;;;7.57;6.72;;;29.70;51.90;29.20;100978;;;;586617;240;23063;-79
2022/05/06 05:34:43;;;;;;;8.65;6.45;;;30.00;51.60;29.90;100969;;;;586792;240;23128;-80
2022/05/06 05:37:11;;;;;;;10.07;6.70;;;30.60;50.80;30.60;100975;;;;586311;240;23071;-81
2022/05/06 05:39:39;;;;;;;7.70;6.25;;;31.20;49.30;31.10;100975;;;;586359;240;24143;-80
2022/05/06 05:42:07;;;;;;;8.50;5.93;;;31.90;48.70;31.40;100973;;;;586304;240;23098;-81
2022/05/06 05:50:07;;;;;;;7.18;5.37;;;32.70;46.20;32.60;100982;;;;586810;240;23081;-81
2022/05/06 05:52:35;;;;;;;6.37;5.78;;;33.20;45.90;32.70;100980;;;;586653;240;24111;-80
2022/05/06 05:55:03;;;;;;;10.73;6.62;;;33.40;45.20;32.80;100985;;;;586797;240;23090;-78
2022/05/06 05:57:30;;;;;;;8.65;5.70;;;33.60;44.80;33.50;100989;;;;585983;240;23067;-78
2022/05/06 05:59:58;;;;;;;6.20;5.60;;;34.10;44.30;34.20;100993;;;;586032;240;23075;-79
2022/05/06 06:02:26;;;;;;;8.00;5.47;;;34.80;43.50;34.80;100996;;;;585758;241;23075;-82
2022/05/06 06:04:55;;;;;;;6.65;5.72;;;35.70;42.10;35.00;100996;;;;585451;241;23121;-78
2022/05/06 06:07:23;;;;;;;6.35;5.50;;;35.60;41.90;35.00;101006;;;;585513;241;23175;-83
2022/05/06 06:09:51;;;;;;;6.07;5.47;;;35.80;41.60;34.80;101002;;;;585375;241;23114;-82
2022/05/06 06:12:19;;;;;;;5.55;5.00;;;35.60;41.50;34.90;101000;;;;585863;241;23058;-80
2022/05/06 06:14:47;;;;;;;7.93;5.30;;;35.60;41.30;34.90;100999;;;;585955;241;23079;-80
2022/05/06 06:17:14;;;;;;;7.78;4.93;;;35.50;41.20;35.20;101003;;;;585904;241;23087;-80
2022/05/06 06:19:42;;;;;;;6.12;5.07;;;35.80;41.40;35.80;101006;;;;585919;241;23074;-80
2022/05/06 06:22:10;;;;;;;7.22;5.20;;;36.20;41.30;36.40;101014;;;;585917;241;23078;-79
2022/05/06 06:24:38;;;;;;;5.35;4.82;;;36.90;40.80;36.80;101002;;;;585956;241;23063;-78
2022/05/06 06:27:06;;;;;;;6.65;4.87;;;37.30;39.90;36.90;101008;;;;585839;241;23152;-81
2022/05/06 06:29:35;;;;;;;7.45;4.87;;;37.60;39.20;37.00;101012;;;;585915;241;24129;-76
2022/05/06 06:32:03;;;;;;;4.50;4.10;;;37.90;39.20;37.40;101012;;;;585804;241;23056;-78
2022/05/06 06:34:31;;;;;;;4.78;4.30;;;37.90;39.10;37.70;101013;;;;594213;238;23106;-80
2022/05/06 06:36:59;;;;;;;5.18;4.40;;;38.20;38.60;37.70;101017;;;;585483;241;23086;-80
2022/05/06 06:39:28;;;;;;;6.15;4.20;;;38.40;38.40;38.00;101019;;;;586978;240;23060;-78
2022/05/06 06:41:56;;;;;;;4.05;3.85;;;38.40;38.30;38.50;101016;;;;586568;240;24122;-80
2022/05/06 06:44:24;;;;;;;7.00;4.20;;;38.80;37.70;38.20;101020;;;;585893;240;23072;-77
2022/05/06 06:46:53;;;;;;;4.35;4.05;;;38.80;38.00;38.30;101022;;;;587021;240;23072;-78
2022/05/06 06:49:20;;;;;;;4.43;4.12;;;38.70;37.50;38.70;101027;;;;586410;240;23109;-78
2022/05/06 06:51:48;;;;;;;4.65;4.15;;;39.10;37.40;38.40;101023;;;;585950;240;23068;-77
2022/05/06 06:54:16;;;;;;;4.22;3.83;;;39.00;36.90;38.20;101024;;;;586012;240;23121;-79
2022/05/06 06:56:44;;;;;;;5.82;5.28;;;38.80;37.30;38.80;101029;;;;585749;240;23163;-77
2022/05/06 06:59:12;;;;;;;5.68;3.95;;;39.10;37.10;39.30;101031;;;;585875;240;24097;-77
2022/05/06 07:01:40;;;;;;;4.20;3.80;;;39.50;36.60;39.60;101029;;;;585908;240;23073;-79
2022/05/06 07:04:08;;;;;;;3.92;3.62;;;39.80;36.50;40.10;101030;;;;585821;240;23085;-79
2022/05/06 07:12:09;;;;;;;3.20;3.00;;;41.90;34.60;41.90;101036;;;;586599;240;23116;-80
2022/05/06 07:14:36;;;;;;;3.12;2.90;;;42.10;34.10;41.70;101031;;;;586423;241;24084;-77
2022/05/06 07:17:05;;;;;;;3.72;3.10;;;42.20;33.80;41.60;101042;;;;585939;241;23103;-78
2022/05/06 07:19:35;;;;;;;3.10;2.90;;;42.10;34.10;41.90;101040;;;;585831;241;23070;-79
2022/05/06 07:22:03;;;;;;;6.25;3.65;;;42.20;34.10;42.20;101047;;;;586369;241;23098;-80
2022/05/06 07:24:31;;;;;;;3.75;3.45;;;42.50;33.90;42.50;101052;;;;585933;241;23106;-78
2022/05/06 07:26:59;;;;;;;3.25;2.95;;;42.80;33.50;42.60;101056;;;;585873;241;24103;-78
2022/05/06 07:29:27;;;;;;;3.70;3.40;;;43.00;33.20;42.90;101061;;;;580727;241;35121;-78
2022/05/06 07:31:54;;;;;;;3.75;3.10;;;43.40;32.60;43.00;101061;;;;585853;241;23080;-78
2022/05/06 07:34:22;;;;;;;3.30;3.00;;;43.50;32.60;42.90;101056;;;;586461;241;23067;-78
2022/05/06 07:36:50;;;;;;;3.22;3.00;;;43.30;32.60;43.00;101050;;;;586046;241;24104;-76
2022/05/06 07:39:18;;;;;;;3.55;3.15;;;43.30;32.60;43.40;101063;;;;585841;241;23067;-76
2022/05/06 07:41:46;;;;;;;4.97;3.20;;;43.50;33.10;43.70;101058;;;;586125;241;24132;-78
2022/05/06 07:44:14;;;;;;;5.90;3.20;;;43.90;32.70;43.80;101057;;;;586612;241;23055;-79
2022/05/06 07:46:42;;;;;;;2.55;2.40;;;44.10;32.40;43.60;101056;;;;586269;241;23103;-79
2022/05/06 07:49:10;;;;;;;3.03;2.83;;;43.90;32.00;43.60;101059;;;;586017;240;23077;-80
2022/05/06 07:51:39;;;;;;;2.72;2.53;;;43.90;32.00;43.40;101054;;;;586764;240;23080;-82
2022/05/06 07:54:08;;;;;;;3.20;3.00;;;44.10;32.10;43.90;101063;;;;581348;240;46013;-81
2022/05/06 07:56:36;;;;;;;2.85;2.40;;;44.50;32.20;44.30;101063;;;;581077;240;35112;-78
2022/05/06 07:59:07;;;;;;;2.62;2.53;;;44.50;31.30;43.50;101059;;;;585977;240;23060;-78
2022/05/06 08:04:33;;;;;;;2.42;2.30;;;44.30;32.00;44.70;101054;;;;586535;240;23050;-77
2022/05/06 08:07:04;;;;;;;2.92;2.65;;;44.80;31.20;45.20;101064;;;;586081;240;24158;-78
2022/05/06 08:09:35;;;;;;;2.85;2.65;;;45.50;31.00;45.70;101065;;;;586166;240;23154;-78
2022/05/06 08:12:00;;;;;;;3.17;2.97;;;46.20;30.30;44.00;101070;;;;586101;240;23074;-79
2022/05/06 08:14:28;;;;;;;4.05;3.12;;;45.30;30.30;42.00;101064;;;;586245;240;24147;-81
2022/05/06 08:16:56;;;;;;;3.25;2.42;;;43.60;31.60;41.50;101057;;;;586266;240;24116;-78
2022/05/06 08:19:24;;;;;;;2.90;2.70;;;42.70;32.10;39.60;101066;;;;586255;240;24098;-79
2022/05/06 08:21:55;;;;;;;3.15;2.22;;;41.20;32.80;37.40;101066;;;;586253;240;24122;-77
2022/05/06 08:24:23;;;;;;;1.80;1.70;;;36.80;35.50;35.00;101061;;;;586519;240;23068;-77
2022/05/06 08:26:52;;;;;;;1.73;1.62;;;34.60;37.30;32.90;101061;;;;596562;240;23111;-79
2022/05/06 08:29:20;;;;;;;2.35;2.12;;;34.50;37.20;31.20;101060;;;;595119;241;23068;-80
2022/05/06 08:31:45;;;;;;;3.92;2.12;;;32.60;39.40;30.40;101065;;;;586148;241;23193;-82
2022/05/06 08:34:13;;;;;;;3.67;2.42;;;31.40;41.30;30.20;101064;;;;585920;241;24135;-81
2022/05/06 08:36:40;;;;;;;3.35;2.00;;;30.70;42.70;29.60;101059;;;;586452;241;23074;-80
2022/05/06 08:39:11;;;;;;;2.42;2.22;;;30.20;43.00;28.90;101070;;;;586125;241;23116;-81
2022/05/06 08:41:36;;;;;;;1.42;1.42;;;29.50;44.00;30.10;101065;;;;594893;237;23082;-82
2022/05/06 08:52:23;;;;;;;1.50;1.40;;;37.10;36.80;39.00;101078;;;;586471;241;23137;-82
2022/05/06 08:54:51;;;;;;;2.85;1.60;;;39.10;34.60;38.20;101078;;;;585495;241;23085;-82
2022/05/06 08:57:19;;;;;;;2.47;2.28;;;39.20;33.70;38.40;101077;;;;585891;241;23069;-82
2022/05/06 08:59:51;;;;;;;2.50;2.28;;;39.20;34.90;38.80;101075;;;;586145;241;23060;-82
2022/05/06 09:02:18;;;;;;;2.80;2.60;;;39.60;34.80;36.60;101077;;;;587262;240;23120;-82
2022/05/06 09:04:46;;;;;;;3.00;2.40;;;38.40;35.00;34.30;101084;;;;587234;240;23087;-81
2022/05/06 09:07:19;;;;;;;2.55;2.45;;;36.30;36.70;32.30;101083;;;;586559;240;23123;-82
2022/05/06 09:09:44;;;;;;;2.80;2.60;;;34.10;38.80;30.70;101080;;;;587020;240;23133;-79
2022/05/06 09:17:47;;;;;;;3.92;2.40;;;29.60;44.80;29.30;101090;;;;586351;240;23091;-82
2022/05/06 09:20:22;;;;;;;2.37;2.15;;;29.70;45.10;28.40;101087;;;;586194;240;23161;-77
2022/05/06 09:22:47;;;;;;;3.22;2.17;;;29.10;43.50;27.40;101082;;;;586309;240;23093;-78
2022/05/06 09:25:36;;;;;;;4.72;2.20;;;28.30;45.00;27.90;101082;;;;586719;240;23079;-77
2022/05/06 09:28:04;;;;;;;3.22;2.92;;;28.20;46.80;30.80;101082;;;;585491;240;23075;-79
2022/05/06 09:30:35;;;;;;;2.65;2.45;;;30.50;45.50;32.00;101080;;;;586726;240;23180;-78
2022/05/06 09:32:59;;;;;;;2.33;2.12;;;32.30;42.20;32.50;101087;;;;585921;240;24119;-78
2022/05/06 09:35:31;;;;;;;2.45;2.25;;;33.10;40.70;32.10;101094;;;;586268;240;24090;-84
2022/05/06 09:37:56;;;;;;;2.40;2.30;;;33.00;40.60;30.70;101082;;;;586380;241;23091;-82
2022/05/06 09:40:31;;;;;;;3.62;2.45;;;32.10;41.20;31.10;101087;;;;585775;241;23082;-79
2022/05/06 09:42:58;;;;;;;2.53;2.28;;;31.80;42.50;33.10;101096;;;;585432;241;23139;-82
2022/05/06 09:45:35;;;;;;;3.28;2.22;;;33.50;41.50;32.90;101094;;;;586169;241;23078;-82
2022/05/06 09:48:06;;;;;;;2.15;2.05;;;33.90;39.60;31.50;101090;;;;595124;241;24093;-80
2022/05/06 09:50:39;;;;;;;2.67;2.35;;;32.90;39.20;29.90;101096;;;;595927;237;23116;-80
2022/05/06 09:53:10;;;;;;;4.18;2.50;;;31.50;41.30;28.60;101095;;;;585969;241;24074;-76
2022/05/06 09:55:38;;;;;;;4.45;3.17;;;30.00;43.60;27.90;101089;;;;585606;241;23090;-76
2022/05/06 09:58:09;;;;;;;4.20;3.20;;;28.90;45.60;29.80;101090;;;;586105;241;23091;-76
2022/05/06 10:00:37;;;;;;;2.70;2.50;;;30.00;46.70;32.30;101095;;;;585343;241;24127;-81
2022/05/06 10:03:06;;;;;;;2.85;2.65;;;32.50;43.40;34.20;101099;;;;585412;241;23074;-81
2022/05/06 10:05:30;;;;;;;6.07;2.60;;;34.80;40.20;35.00;101104;;;;585987;241;23134;-78
2022/05/06 10:08:04;;;;;;;2.87;2.33;;;36.00;38.90;35.80;101103;;;;586294;241;24086;-77
2022/05/06 10:10:31;;;;;;;3.83;2.40;;;36.80;37.80;37.10;101101;;;;584524;241;23114;-83
2022/05/06 10:13:03;;;;;;;4.10;2.78;;;39.20;36.10;38.00;101100;;;;586525;240;23100;-84
2022/05/06 10:15:35;;;;;;;3.58;2.80;;;39.10;36.00;37.80;101116;;;;587372;240;23084;-85
2022/05/06 10:18:02;;;;;;;3.22;2.75;;;38.00;35.50;35.90;101112;;;;587577;240;24072;-82
2022/05/06 10:20:37;;;;;;;2.65;2.45;;;37.90;35.40;33.70;101115;;;;587243;240;23071;-82
2022/05/06 10:23:08;;;;;;;2.28;2.12;;;35.90;37.10;32.20;101113;;;;587013;240;23069;-80
2022/05/06 10:25:46;;;;;;;6.45;2.78;;;34.00;39.10;31.90;101112;;;;587357;240;23071;-79
2022/05/06 10:34:12;;;;;;;6.15;4.78;;;32.20;42.10;29.10;101113;;;;586958;240;23081;-80
2022/05/06 10:36:43;;;;;;;5.47;4.97;;;30.60;44.20;28.20;101110;;;;587030;240;23082;-79
2022/05/06 10:39:29;;;;;;;4.87;4.47;;;29.50;46.20;27.20;101113;;;;586854;240;23113;-77
2022/05/06 10:42:08;;;;;;;6.30;5.10;;;27.30;49.30;26.40;101113;;;;595675;240;24077;-78
2022/05/06 10:44:42;;;;;;;6.60;5.30;;;27.20;49.20;25.80;101108;;;;586326;240;24079;-77
2022/05/06 10:47:12;;;;;;;5.97;5.43;;;26.60;50.40;25.20;101106;;;;585971;240;23067;-77
2022/05/06 10:49:43;;;;;;;9.30;4.60;;;25.50;52.40;24.90;101101;;;;585730;241;24077;-79
2022/05/06 10:52:24;;;;;;;5.87;4.30;;;25.50;52.40;24.60;101105;;;;585972;241;24079;-77
2022/05/06 10:55:00;;;;;;;5.80;4.03;;;25.10;53.20;24.30;101095;;;;586024;241;23100;-78
2022/05/06 10:57:28;;;;;;;6.27;4.97;;;24.80;53.70;24.00;101099;;;;586463;241;23172;-77
2022/05/06 10:59:58;;;;;;;5.30;4.90;;;24.60;54.50;23.50;101101;;;;586495;241;24246;-76
2022/05/06 11:02:27;;;;;;;8.50;5.80;;;24.20;55.30;23.00;101109;;;;586528;241;24036;-77
2022/05/06 11:04:54;;;;;;;6.80;5.00;;;23.80;56.40;22.50;101101;;;;594661;241;24092;-77
2022/05/06 11:07:22;;;;;;;8.80;5.10;;;23.30;57.40;22.00;101099;;;;586307;241;24069;-78
2022/05/06 11:09:51;;;;;;;6.60;5.53;;;22.40;59.40;21.60;101092;;;;586104;241;23082;-80
2022/05/06 11:12:43;;;;;;;9.30;5.87;;;22.00;60.20;21.20;101086;;;;595744;241;24059;-81
2022/05/06 11:15:14;;;;;;;6.63;5.67;;;22.00;60.20;20.80;101094;;;;585608;241;24067;-81
2022/05/06 11:17:44;;;;;;;7.27;5.67;;;21.50;62.20;20.50;101086;;;;586200;236;24080;-78
2022/05/06 11:20:16;;;;;;;7.87;6.10;;;21.20;63.30;20.30;101085;;;;586032;241;23125;-77
2022/05/06 11:22:58;;;;;;;11.20;5.67;;;20.90;64.20;20.00;101080;;;;595242;236;24059;-78
2022/05/06 11:25:27;;;;;;;5.87;5.27;;;20.50;66.20;19.80;101087;;;;591727;240;23099;-78
2022/05/06 11:27:55;;;;;;;9.77;6.00;;;20.20;66.90;19.60;101084;;;;587249;240;24084;-80
2022/05/06 11:30:24;;;;;;;7.03;5.40;;;20.10;67.50;19.50;101086;;;;586905;240;24067;-83
2022/05/06 11:32:55;;;;;;;7.67;5.70;;;20.00;67.30;19.50;101079;;;;587012;240;24112;-77
2022/05/06 11:35:28;;;;;;;8.90;6.47;;;20.00;67.90;19.50;101077;;;;595872;240;23090;-81
2022/05/06 11:37:56;;;;;;;12.47;7.30;;;20.00;68.80;19.30;101076;;;;586839;240;24053;-80
2022/05/06 11:40:35;;;;;;;18.40;7.47;;;19.80;70.10;19.10;101079;;;;586329;240;24075;-77
2022/05/06 11:42:53;;;;;;;11.67;6.43;;;19.50;70.70;18.70;101080;;;;586173;240;24058;-83
2022/05/06 11:48:10;;;;;;;12.87;5.67;;;19.20;71.90;18.20;101079;;;;586912;240;24050;-78
2022/05/06 11:50:38;;;;;;;11.50;6.23;;;18.90;73.30;18.20;101077;;;;586024;240;24093;-78
2022/05/06 11:53:09;;;;;;;7.57;4.87;;;18.90;74.00;18.30;101068;;;;586681;240;24086;-81
2022/05/06 11:55:39;;;;;;;8.93;5.40;;;18.90;74.20;18.50;101070;;;;586496;240;24080;-78
2022/05/06 11:58:07;;;;;;;11.50;5.97;;;19.10;74.40;18.20;101080;;;;586250;240;24124;-78
2022/05/06 12:00:35;;;;;;;7.10;6.00;;;18.60;76.00;17.90;101072;;;;595508;241;24088;-77
2022/05/06 12:03:04;;;;;;;11.87;6.17;;;18.60;76.00;17.80;101074;;;;586110;241;24143;-79
2022/05/06 12:05:34;;;;;;;10.53;6.50;;;18.50;77.00;17.70;101066;;;;586068;241;24123;-77
2022/05/06 12:08:02;;;;;;;9.47;5.37;;;18.40;77.80;17.60;101070;;;;586095;241;24088;-81